Weather at Goodspeed Airport

Public forecast

Using degrees Fahrenheit for public forecast. Weather courtesy of forecast.io.

Closest aviation weather report (METAR) to Goodspeed Airport

Closest report is Chester Airport, 4.3 nm (8.1 km) SSW. Retrieved 2020/09/29 21:15 UTC (2 hours ago):

KSNC 292115Z AUTO 17007KT 9SM OVC009 22/21 A2986 RMK AO2

Closest aviation forecast (TAF) to Goodspeed Airport

Closest forecast is Groton New London Airport, 19.8 nm (36.6 km) ESE. Retrieved 2020/09/29 18:42 UTC (4 hours ago):

TAF KGON 291741Z 2918/3018 12010KT 5SM -SHRA BR BKN020 OVC040 FM292200 14008KT 6SM SHRA BR BKN008 OVC015 FM300300 16010KT 3SM SHRA BR BKN008 OVC010 FM300700 16018G27KT 3SM +SHRA BR OVC005 WS020/19060KT FM301200 23014G24KT 5SM SHRA BR SCT005 OVC010 FM301600 26016G26KT P6SM SCT040 BKN250